createdAt,value
2023-05-07T00:00:12.534Z,18.50
2023-05-07T00:02:40.065Z,18.20
2023-05-07T00:05:08.345Z,18.10
2023-05-07T00:07:35.773Z,18.00
2023-05-07T00:10:03.846Z,18.00
2023-05-07T00:12:34.725Z,18.10
2023-05-07T00:15:03.747Z,18.40
2023-05-07T00:17:31.483Z,18.60
2023-05-07T00:19:58.698Z,18.60
2023-05-07T00:22:25.886Z,18.30
2023-05-07T00:24:53.080Z,18.40
2023-05-07T00:27:20.424Z,18.60
2023-05-07T00:29:47.586Z,18.40
2023-05-07T00:32:14.839Z,18.10
2023-05-07T00:34:42.159Z,17.70
2023-05-07T00:37:09.850Z,17.60
2023-05-07T00:39:37.102Z,17.60
2023-05-07T00:42:04.502Z,17.80
2023-05-07T00:44:31.689Z,18.10
2023-05-07T00:46:59.370Z,18.20
2023-05-07T00:49:57.709Z,18.10
2023-05-07T00:52:27.238Z,18.30
2023-05-07T00:54:55.957Z,18.50
2023-05-07T00:57:23.791Z,18.00
2023-05-07T00:59:51.776Z,18.20
2023-05-07T01:02:19.008Z,18.00
2023-05-07T01:04:49.226Z,18.00
2023-05-07T01:07:16.987Z,17.90
2023-05-07T01:09:44.216Z,18.10
2023-05-07T01:12:12.109Z,18.10
2023-05-07T01:14:39.306Z,18.20
2023-05-07T01:17:07.711Z,18.10
2023-05-07T01:19:35.063Z,18.20
2023-05-07T01:22:09.720Z,18.40
2023-05-07T01:24:38.520Z,18.20
2023-05-07T01:27:05.921Z,18.20
2023-05-07T01:30:10.451Z,18.40
2023-05-07T01:33:06.099Z,18.10
2023-05-07T01:35:37.721Z,17.80
2023-05-07T01:38:06.977Z,18.00
2023-05-07T01:40:35.468Z,17.80
2023-05-07T01:43:04.555Z,17.90
2023-05-07T01:45:32.479Z,17.60
2023-05-07T01:48:03.988Z,17.90
2023-05-07T01:50:32.568Z,17.70
2023-05-07T01:52:59.764Z,17.90
2023-05-07T01:55:27.000Z,17.70
2023-05-07T01:57:54.187Z,17.60
2023-05-07T02:00:21.703Z,17.60
2023-05-07T02:02:49.052Z,17.90
2023-05-07T02:05:16.362Z,17.90
2023-05-07T02:07:43.557Z,17.70
2023-05-07T02:10:11.288Z,17.50
2023-05-07T02:12:38.665Z,17.80
2023-05-07T02:15:06.562Z,17.70
2023-05-07T02:17:34.030Z,17.60
2023-05-07T02:20:01.334Z,17.90
2023-05-07T02:22:28.515Z,18.00
2023-05-07T02:24:55.673Z,18.00
2023-05-07T02:27:22.882Z,17.80
2023-05-07T02:29:50.075Z,18.00
2023-05-07T02:32:17.296Z,17.80
2023-05-07T02:34:45.049Z,17.60
2023-05-07T02:37:12.197Z,17.60
2023-05-07T02:39:39.364Z,17.50
2023-05-07T02:42:06.533Z,17.20
2023-05-07T02:44:33.783Z,17.10
2023-05-07T02:47:00.970Z,16.80
2023-05-07T02:49:28.208Z,16.70
2023-05-07T02:51:56.427Z,16.80
2023-05-07T02:54:23.595Z,16.70
2023-05-07T02:56:50.987Z,16.70
2023-05-07T02:59:18.157Z,16.70
2023-05-07T03:01:46.351Z,16.80
2023-05-07T03:04:13.569Z,16.90
2023-05-07T03:06:40.772Z,16.70
2023-05-07T03:09:08.115Z,16.60
2023-05-07T03:11:36.574Z,16.90
2023-05-07T03:14:03.851Z,17.20
2023-05-07T03:16:31.134Z,17.00
2023-05-07T03:18:58.387Z,17.20
2023-05-07T03:21:27.362Z,17.40
2023-05-07T03:23:54.583Z,17.50
2023-05-07T03:26:21.451Z,17.50
2023-05-07T03:28:48.265Z,17.50
2023-05-07T03:31:15.149Z,17.30
2023-05-07T03:33:55.520Z,17.40
2023-05-07T03:36:22.851Z,17.40
2023-05-07T03:38:50.620Z,17.20
2023-05-07T03:41:17.480Z,16.90
2023-05-07T03:43:44.234Z,17.10
2023-05-07T03:46:11.048Z,17.30
2023-05-07T03:48:37.839Z,17.00
2023-05-07T03:51:04.763Z,16.70
2023-05-07T03:53:31.540Z,16.50
2023-05-07T03:55:58.364Z,16.40
2023-05-07T03:58:25.223Z,16.50
2023-05-07T04:00:52.032Z,15.90
2023-05-07T04:03:18.910Z,16.30
2023-05-07T04:05:45.742Z,16.70
2023-05-07T04:08:12.536Z,16.90
2023-05-07T04:10:42.566Z,17.10
2023-05-07T04:13:09.368Z,17.20
2023-05-07T04:15:37.348Z,17.30
2023-05-07T04:18:04.269Z,17.30
2023-05-07T04:20:31.133Z,17.30
2023-05-07T04:22:57.904Z,17.10
2023-05-07T04:25:27.356Z,16.80
2023-05-07T04:27:55.468Z,16.70
2023-05-07T04:30:24.119Z,16.50
2023-05-07T04:32:51.076Z,16.40
2023-05-07T04:35:18.397Z,16.50
2023-05-07T04:37:45.547Z,16.60
2023-05-07T04:40:12.633Z,16.40
2023-05-07T04:42:39.575Z,16.40
2023-05-07T04:45:07.275Z,16.50
2023-05-07T04:47:34.110Z,16.40
2023-05-07T04:50:00.917Z,16.50
2023-05-07T04:52:27.777Z,16.90
2023-05-07T04:54:54.580Z,17.00
2023-05-07T04:57:21.356Z,17.20
2023-05-07T04:59:48.187Z,17.40
2023-05-07T05:02:17.594Z,17.60
2023-05-07T05:04:46.421Z,17.80
2023-05-07T05:07:13.196Z,17.90
2023-05-07T05:09:39.980Z,17.80
2023-05-07T05:12:08.275Z,17.70
2023-05-07T05:14:35.054Z,17.90
2023-05-07T05:17:01.837Z,17.90
2023-05-07T05:19:28.594Z,17.90
2023-05-07T05:21:55.415Z,17.90
2023-05-07T05:24:22.210Z,18.00
2023-05-07T05:26:48.991Z,18.00
2023-05-07T05:29:15.859Z,17.20
2023-05-07T05:31:42.923Z,17.20
2023-05-07T05:34:09.771Z,17.50
2023-05-07T05:36:36.537Z,17.90
2023-05-07T05:39:03.363Z,18.00
2023-05-07T05:41:30.625Z,18.10
2023-05-07T05:43:57.409Z,18.10
2023-05-07T05:46:24.276Z,18.00
2023-05-07T05:48:51.155Z,17.80
2023-05-07T05:51:17.909Z,17.80
2023-05-07T05:53:44.740Z,17.80
2023-05-07T05:56:11.595Z,17.20
2023-05-07T05:58:38.410Z,16.80
2023-05-07T06:01:06.213Z,16.30
2023-05-07T06:03:35.549Z,15.80
2023-05-07T06:06:02.308Z,15.80
2023-05-07T06:08:32.288Z,15.80
2023-05-07T06:11:00.919Z,15.70
2023-05-07T06:13:27.811Z,16.20
2023-05-07T06:15:54.686Z,16.40
2023-05-07T06:18:21.470Z,16.30
2023-05-07T06:20:48.367Z,16.30
2023-05-07T06:23:17.756Z,16.30
2023-05-07T06:25:51.194Z,16.30
2023-05-07T06:28:18.126Z,16.60
2023-05-07T06:30:45.098Z,16.60
2023-05-07T06:33:12.034Z,16.80
2023-05-07T06:35:38.938Z,16.80
2023-05-07T06:38:06.063Z,17.40
2023-05-07T06:40:32.843Z,17.40
2023-05-07T06:42:59.619Z,17.30
2023-05-07T06:45:26.453Z,17.10
2023-05-07T06:47:53.275Z,17.20
2023-05-07T06:50:20.726Z,17.50
2023-05-07T06:52:59.394Z,17.40
2023-05-07T06:55:44.836Z,17.30
2023-05-07T06:58:27.660Z,17.90
2023-05-07T07:00:58.843Z,18.10
2023-05-07T07:03:36.069Z,17.60
2023-05-07T07:06:03.521Z,17.70
2023-05-07T07:08:37.725Z,18.00
2023-05-07T07:11:30.886Z,17.70
2023-05-07T07:14:01.532Z,18.30
2023-05-07T07:16:28.396Z,18.40
2023-05-07T07:18:55.373Z,18.10
2023-05-07T07:21:22.161Z,18.30
2023-05-07T07:23:48.929Z,18.30
2023-05-07T07:26:15.912Z,18.70
2023-05-07T07:28:46.770Z,18.30
2023-05-07T07:31:14.164Z,18.20
2023-05-07T07:33:41.101Z,18.30
2023-05-07T07:36:08.458Z,18.80
2023-05-07T07:38:35.961Z,18.50
2023-05-07T07:41:03.121Z,19.00
2023-05-07T07:43:30.154Z,18.90
2023-05-07T07:45:57.063Z,18.90
2023-05-07T07:48:24.155Z,18.80
2023-05-07T07:50:52.191Z,19.50
2023-05-07T07:53:19.650Z,20.20
2023-05-07T07:55:46.807Z,20.00
2023-05-07T07:58:13.634Z,20.60
2023-05-07T08:00:40.549Z,19.80
2023-05-07T08:03:10.498Z,19.40
2023-05-07T08:05:37.507Z,18.80
2023-05-07T08:08:04.559Z,18.90
2023-05-07T08:10:35.238Z,19.50
2023-05-07T08:13:04.451Z,19.70
2023-05-07T08:15:31.384Z,19.90
2023-05-07T08:18:00.960Z,20.00
2023-05-07T08:20:27.854Z,19.60
2023-05-07T08:22:54.679Z,19.60
2023-05-07T08:25:21.540Z,19.80
2023-05-07T08:27:48.298Z,20.20
2023-05-07T08:30:15.638Z,21.60
2023-05-07T08:32:42.446Z,21.70
2023-05-07T08:35:09.754Z,20.90
2023-05-07T08:37:36.626Z,20.40
2023-05-07T08:40:04.141Z,21.60
2023-05-07T08:42:33.503Z,21.60
2023-05-07T08:45:01.753Z,23.10
2023-05-07T08:47:36.494Z,22.50
2023-05-07T08:50:03.849Z,22.10
2023-05-07T08:52:30.684Z,22.20
2023-05-07T08:54:58.022Z,22.80
2023-05-07T08:57:25.344Z,22.80
2023-05-07T08:59:52.266Z,21.90
2023-05-07T09:02:19.267Z,21.40
2023-05-07T09:04:46.640Z,22.40
2023-05-07T09:07:13.812Z,21.90
2023-05-07T09:09:41.024Z,21.60
2023-05-07T09:12:08.361Z,21.50
2023-05-07T09:14:35.561Z,22.00
2023-05-07T09:17:02.876Z,22.20
2023-05-07T09:19:30.047Z,22.20
2023-05-07T09:22:04.599Z,22.70
2023-05-07T09:24:35.865Z,22.40
2023-05-07T09:27:03.869Z,21.60
2023-05-07T09:29:36.001Z,22.20
2023-05-07T09:32:04.473Z,21.30
2023-05-07T09:34:32.220Z,21.00
2023-05-07T09:37:03.744Z,21.80
2023-05-07T09:39:49.837Z,21.30
2023-05-07T09:42:17.057Z,22.20
2023-05-07T09:45:08.845Z,22.10
2023-05-07T09:47:50.488Z,22.50
2023-05-07T09:54:02.366Z,22.20
2023-05-07T09:56:45.034Z,22.70
2023-05-07T09:59:57.703Z,22.60
2023-05-07T10:03:03.673Z,22.50
2023-05-07T10:05:52.307Z,21.80
2023-05-07T10:08:53.699Z,21.70
2023-05-07T10:11:21.575Z,21.80
2023-05-07T10:14:08.016Z,20.90
2023-05-07T10:16:39.510Z,21.20
2023-05-07T10:19:19.214Z,21.50
2023-05-07T10:22:33.884Z,21.80
2023-05-07T10:25:34.013Z,21.50
2023-05-07T10:28:33.523Z,21.80
2023-05-07T10:33:32.694Z,21.00
2023-05-07T10:36:33.115Z,20.90
2023-05-07T10:39:32.890Z,21.40
2023-05-07T10:42:09.916Z,20.70
2023-05-07T10:44:38.315Z,20.60
2023-05-07T10:47:23.738Z,20.30
2023-05-07T10:49:50.829Z,19.80
2023-05-07T10:52:22.663Z,20.10
2023-05-07T10:55:15.907Z,19.80
2023-05-07T10:57:43.082Z,19.50
2023-05-07T11:00:38.043Z,19.10
2023-05-07T11:03:09.413Z,19.40
2023-05-07T11:05:38.452Z,19.60
2023-05-07T11:08:06.507Z,19.70
2023-05-07T11:10:57.371Z,19.30
2023-05-07T11:13:48.452Z,19.60
2023-05-07T11:16:21.763Z,20.40
2023-05-07T11:18:54.360Z,19.60
2023-05-07T11:21:41.728Z,20.10
2023-05-07T11:24:13.710Z,19.90
2023-05-07T11:26:49.877Z,19.70
2023-05-07T11:29:23.173Z,19.00
2023-05-07T11:31:55.613Z,18.60
2023-05-07T11:34:27.296Z,19.10
2023-05-07T11:36:54.319Z,19.50
2023-05-07T11:39:33.758Z,19.60
2023-05-07T11:42:01.819Z,19.80
2023-05-07T11:44:46.866Z,19.90
2023-05-07T11:47:19.751Z,20.00
2023-05-07T11:49:54.986Z,20.00
2023-05-07T11:52:24.230Z,19.80
2023-05-07T11:54:56.980Z,19.20
2023-05-07T11:57:25.008Z,19.90
2023-05-07T11:59:59.533Z,20.10
2023-05-07T12:02:27.283Z,19.90
2023-05-07T12:04:55.849Z,20.00
2023-05-07T12:07:24.876Z,20.20
2023-05-07T12:09:51.814Z,20.40
2023-05-07T12:12:19.405Z,20.50
2023-05-07T12:14:47.246Z,20.80
2023-05-07T12:17:15.911Z,20.10
2023-05-07T12:19:44.661Z,19.80
2023-05-07T12:22:12.336Z,20.20
2023-05-07T12:24:49.717Z,20.70
2023-05-07T12:27:17.781Z,21.10
2023-05-07T12:29:49.102Z,21.00
2023-05-07T12:32:17.736Z,21.20
2023-05-07T12:34:50.784Z,21.00
2023-05-07T12:37:17.873Z,20.40
2023-05-07T12:40:10.762Z,19.90
2023-05-07T12:42:38.944Z,20.70
2023-05-07T12:45:14.720Z,20.40
2023-05-07T12:47:46.335Z,21.10
2023-05-07T12:50:15.234Z,20.50
2023-05-07T12:52:42.313Z,21.00
2023-05-07T12:55:10.725Z,20.90
2023-05-07T12:57:43.158Z,21.50
2023-05-07T13:00:10.906Z,22.10
2023-05-07T13:02:42.695Z,22.10
2023-05-07T13:05:10.167Z,21.80
2023-05-07T13:07:38.399Z,21.00
2023-05-07T13:10:06.467Z,20.70
2023-05-07T13:12:33.751Z,21.30
2023-05-07T13:15:00.595Z,20.90
2023-05-07T13:17:27.495Z,21.30
2023-05-07T13:19:54.461Z,20.80
2023-05-07T13:22:21.251Z,21.20
2023-05-07T13:24:48.146Z,21.50
2023-05-07T13:27:14.912Z,21.50
2023-05-07T13:29:41.689Z,21.10
2023-05-07T13:32:08.601Z,21.30
2023-05-07T13:34:35.588Z,20.20
2023-05-07T13:37:02.364Z,20.20
2023-05-07T13:39:29.136Z,20.20
2023-05-07T13:41:55.952Z,19.90
2023-05-07T13:44:22.863Z,19.70
2023-05-07T13:46:49.732Z,19.90
2023-05-07T13:49:16.561Z,20.10
2023-05-07T13:51:43.318Z,20.50
2023-05-07T13:54:10.079Z,20.30
2023-05-07T13:56:36.899Z,20.40
2023-05-07T13:59:03.751Z,20.40
2023-05-07T14:01:30.683Z,20.40
2023-05-07T14:04:00.971Z,20.50
2023-05-07T14:06:27.887Z,20.70
2023-05-07T14:08:54.707Z,20.50
2023-05-07T14:11:22.169Z,20.80
2023-05-07T14:13:49.054Z,21.00
2023-05-07T14:16:16.448Z,20.70
2023-05-07T14:18:43.241Z,21.10
2023-05-07T14:21:10.862Z,21.20
2023-05-07T14:23:37.755Z,21.10
2023-05-07T14:26:04.677Z,21.60
2023-05-07T14:28:32.021Z,21.90
2023-05-07T14:30:58.955Z,22.10
2023-05-07T14:33:25.877Z,22.00
2023-05-07T14:35:52.646Z,22.30
2023-05-07T14:38:19.420Z,22.40
2023-05-07T14:40:49.225Z,21.90
2023-05-07T14:43:16.031Z,22.30
2023-05-07T14:45:42.812Z,22.50
2023-05-07T14:48:10.321Z,22.40
2023-05-07T14:50:37.215Z,22.40
2023-05-07T14:53:04.865Z,22.20
2023-05-07T14:55:33.434Z,22.00
2023-05-07T14:58:01.431Z,22.40
2023-05-07T15:00:29.177Z,22.50
2023-05-07T15:03:12.023Z,22.00
2023-05-07T15:05:39.144Z,22.10
2023-05-07T15:08:06.418Z,22.40
2023-05-07T15:10:41.808Z,22.50
2023-05-07T15:13:15.598Z,22.40
2023-05-07T15:15:45.022Z,22.20
2023-05-07T15:18:11.828Z,21.70
2023-05-07T15:20:38.683Z,22.00
2023-05-07T15:23:06.904Z,22.10
2023-05-07T15:25:35.121Z,21.80
2023-05-07T15:28:02.001Z,22.40
2023-05-07T15:30:28.834Z,22.10
2023-05-07T15:32:55.777Z,22.40
2023-05-07T15:35:23.117Z,22.40
2023-05-07T15:37:50.939Z,22.50
2023-05-07T15:40:18.019Z,22.10
2023-05-07T15:42:46.783Z,21.70
2023-05-07T15:45:14.238Z,22.30
2023-05-07T15:47:41.651Z,22.30
2023-05-07T15:50:08.928Z,22.40
2023-05-07T15:52:35.967Z,22.60
2023-05-07T15:55:03.586Z,22.50
2023-05-07T15:57:30.493Z,22.00
2023-05-07T15:59:57.734Z,22.30
2023-05-07T16:02:24.926Z,22.20
2023-05-07T16:04:52.069Z,22.20
2023-05-07T16:07:19.882Z,22.40
2023-05-07T16:09:47.394Z,22.60
2023-05-07T16:12:14.269Z,22.30
2023-05-07T16:14:41.069Z,22.40
2023-05-07T16:17:08.415Z,22.30
2023-05-07T16:19:35.332Z,22.40
2023-05-07T16:22:02.106Z,22.50
2023-05-07T16:24:28.908Z,22.30
2023-05-07T16:26:55.929Z,22.50
2023-05-07T16:29:23.241Z,22.50
2023-05-07T16:31:50.696Z,22.40
2023-05-07T16:34:17.507Z,22.60
2023-05-07T16:36:44.322Z,22.50
2023-05-07T16:39:11.167Z,22.70
2023-05-07T16:41:38.594Z,22.50
2023-05-07T16:44:05.499Z,22.20
2023-05-07T16:46:32.466Z,21.80
2023-05-07T16:48:59.292Z,21.70
2023-05-07T16:51:26.095Z,22.10
2023-05-07T16:53:52.867Z,22.10
2023-05-07T16:56:19.852Z,21.50
2023-05-07T16:58:46.624Z,22.20
2023-05-07T17:01:15.187Z,22.30
2023-05-07T17:03:42.271Z,22.20
2023-05-07T17:06:13.996Z,22.20
2023-05-07T17:08:44.470Z,22.20
2023-05-07T17:11:12.426Z,22.20
2023-05-07T17:13:40.159Z,21.90
2023-05-07T17:16:06.972Z,21.80
2023-05-07T17:18:34.245Z,21.50
2023-05-07T17:21:01.115Z,21.60
2023-05-07T17:23:28.458Z,21.90
2023-05-07T17:25:55.232Z,21.80
2023-05-07T17:28:22.073Z,21.80
2023-05-07T17:30:49.878Z,22.00
2023-05-07T17:33:21.394Z,22.00
2023-05-07T17:35:49.480Z,21.50
2023-05-07T17:38:16.304Z,21.30
2023-05-07T17:40:43.041Z,21.30
2023-05-07T17:43:09.777Z,21.20
2023-05-07T17:45:36.625Z,21.50
2023-05-07T17:48:03.855Z,21.40
2023-05-07T17:50:30.717Z,21.10
2023-05-07T17:52:57.787Z,21.30
2023-05-07T17:55:24.628Z,21.20
2023-05-07T17:57:51.423Z,21.40
2023-05-07T18:00:18.366Z,21.40
2023-05-07T18:02:45.276Z,21.50
2023-05-07T18:05:12.202Z,21.70
2023-05-07T18:07:39.117Z,21.50
2023-05-07T18:10:06.543Z,21.50
2023-05-07T18:12:33.446Z,21.60
2023-05-07T18:15:00.293Z,21.60
2023-05-07T18:17:27.806Z,21.50
2023-05-07T18:19:55.282Z,21.30
2023-05-07T18:22:22.595Z,21.00
2023-05-07T18:24:50.807Z,20.90
2023-05-07T18:27:17.813Z,21.00
2023-05-07T18:29:44.594Z,21.00
2023-05-07T18:32:11.871Z,21.00
2023-05-07T18:34:38.903Z,20.90
2023-05-07T18:37:06.080Z,20.90
2023-05-07T18:39:32.961Z,21.00
2023-05-07T18:42:00.134Z,21.00
2023-05-07T18:44:27.266Z,21.00
2023-05-07T18:46:54.177Z,21.30
2023-05-07T18:49:20.975Z,21.40
2023-05-07T18:51:49.639Z,21.50
2023-05-07T18:54:16.439Z,21.60
2023-05-07T18:56:43.224Z,21.30
2023-05-07T18:59:10.466Z,21.30
2023-05-07T19:01:37.283Z,21.40
2023-05-07T19:04:04.159Z,21.40
2023-05-07T19:06:33.388Z,21.30
2023-05-07T19:09:00.735Z,21.30
2023-05-07T19:11:27.612Z,21.30
2023-05-07T19:13:54.421Z,21.40
2023-05-07T19:16:21.259Z,21.40
2023-05-07T19:18:48.197Z,21.40
2023-05-07T19:21:14.991Z,21.20
2023-05-07T19:23:42.157Z,20.90
2023-05-07T19:26:10.694Z,20.80
2023-05-07T19:28:39.078Z,20.30
2023-05-07T19:31:07.237Z,20.40
2023-05-07T19:33:34.020Z,20.30
2023-05-07T19:36:00.945Z,20.20
2023-05-07T19:38:28.112Z,20.00
2023-05-07T19:40:55.352Z,19.70
2023-05-07T19:43:22.117Z,19.50
2023-05-07T19:45:49.960Z,19.50
2023-05-07T19:48:16.863Z,19.50
2023-05-07T19:50:43.696Z,19.60
2023-05-07T19:53:10.869Z,18.80
2023-05-07T19:55:37.672Z,19.30
2023-05-07T19:58:04.855Z,18.80
2023-05-07T20:00:36.609Z,19.30
2023-05-07T20:03:04.413Z,18.00
2023-05-07T20:05:34.203Z,17.90
2023-05-07T20:08:03.857Z,17.60
2023-05-07T20:10:31.306Z,17.90
2023-05-07T20:13:04.255Z,17.60
2023-05-07T20:15:37.581Z,18.00
2023-05-07T20:18:13.961Z,17.40
2023-05-07T20:20:45.766Z,17.50
2023-05-07T20:23:13.192Z,17.80
2023-05-07T20:25:43.799Z,17.30
2023-05-07T20:28:13.520Z,17.10
2023-05-07T20:30:43.658Z,17.10
2023-05-07T20:33:13.642Z,17.40
2023-05-07T20:35:44.170Z,17.20
2023-05-07T20:38:12.770Z,17.20
2023-05-07T20:40:41.914Z,17.20
2023-05-07T20:43:10.634Z,17.20
2023-05-07T20:45:40.334Z,17.20
2023-05-07T20:48:07.627Z,17.20
2023-05-07T20:50:34.921Z,17.30
2023-05-07T20:53:02.245Z,17.50
2023-05-07T20:55:29.694Z,17.70
2023-05-07T20:58:00.317Z,17.80
2023-05-07T21:00:27.232Z,17.70
2023-05-07T21:02:54.105Z,17.90
2023-05-07T21:05:21.067Z,18.00
2023-05-07T21:07:47.863Z,18.10
2023-05-07T21:10:15.026Z,18.40
2023-05-07T21:12:41.975Z,17.40
2023-05-07T21:15:09.986Z,17.40
2023-05-07T21:17:36.816Z,17.90
2023-05-07T21:20:04.022Z,17.90
2023-05-07T21:22:31.218Z,17.50
2023-05-07T21:24:57.988Z,17.90
2023-05-07T21:27:24.833Z,18.50
2023-05-07T21:29:51.588Z,18.70
2023-05-07T21:32:18.366Z,18.10
2023-05-07T21:34:46.567Z,18.40
2023-05-07T21:37:14.134Z,17.80
2023-05-07T21:39:40.942Z,17.90
2023-05-07T21:42:07.748Z,17.70
2023-05-07T21:44:34.577Z,18.40
2023-05-07T21:47:01.466Z,18.30
2023-05-07T21:49:28.254Z,18.40
2023-05-07T21:51:55.164Z,18.40
2023-05-07T21:54:21.962Z,18.20
2023-05-07T21:56:50.103Z,17.60
2023-05-07T21:59:16.991Z,17.30
2023-05-07T22:01:43.796Z,17.60
2023-05-07T22:04:11.100Z,17.50
2023-05-07T22:06:37.974Z,17.20
2023-05-07T22:09:04.812Z,17.20
2023-05-07T22:11:31.598Z,16.70
2023-05-07T22:13:58.411Z,17.20
2023-05-07T22:16:25.286Z,16.70
2023-05-07T22:18:52.112Z,17.00
2023-05-07T22:21:18.907Z,17.20
2023-05-07T22:23:45.668Z,17.20
2023-05-07T22:26:15.578Z,17.00
2023-05-07T22:28:42.368Z,16.60
2023-05-07T22:31:09.256Z,17.30
2023-05-07T22:33:36.131Z,16.70
2023-05-07T22:36:03.192Z,17.20
2023-05-07T22:38:29.974Z,17.20
2023-05-07T22:40:56.792Z,16.50
2023-05-07T22:43:23.574Z,16.40
2023-05-07T22:45:50.504Z,16.50
2023-05-07T22:48:17.305Z,17.00
2023-05-07T22:50:44.083Z,16.50
2023-05-07T22:53:10.881Z,16.70
2023-05-07T22:55:37.726Z,16.60
2023-05-07T22:58:04.518Z,16.30
2023-05-07T23:00:31.315Z,16.90
2023-05-07T23:02:58.204Z,16.80
2023-05-07T23:05:25.090Z,16.40
2023-05-07T23:07:52.024Z,16.60
2023-05-07T23:10:18.920Z,16.70
2023-05-07T23:12:49.271Z,16.70
2023-05-07T23:15:19.953Z,16.40
2023-05-07T23:17:47.619Z,17.00
2023-05-07T23:20:15.094Z,16.80
2023-05-07T23:22:41.923Z,17.20
2023-05-07T23:25:09.344Z,17.50
2023-05-07T23:27:36.155Z,16.80
2023-05-07T23:30:03.278Z,17.00
2023-05-07T23:32:31.388Z,17.30
2023-05-07T23:34:58.258Z,16.60
2023-05-07T23:37:25.434Z,16.40
2023-05-07T23:39:55.234Z,16.70
2023-05-07T23:42:22.259Z,16.80
2023-05-07T23:44:49.155Z,16.90
2023-05-07T23:47:15.989Z,16.60
2023-05-07T23:49:42.745Z,16.30
2023-05-07T23:52:09.581Z,16.70
2023-05-07T23:54:36.451Z,16.60
2023-05-07T23:57:04.400Z,16.60
2023-05-07T23:59:31.176Z,16.80
